Time;durP1;ratioP1;P1;durP2;ratioP2;P2;SDS_P1;SDS_P2;PMS_P1;PMS_P2;Temp;Humidity;BMP_temperature;BMP_pressure;BME280_temperature;BME280_humidity;BME280_pressure;Samples;Min_cycle;Max_cycle;Signal;HPM_P1;HPM_P2
2022/04/20 00:01:18;;;;;;;;;19.50;18.50;;;;;13.84;52.34;100578.19;5037632;28;46380;-55
2022/04/20 00:03:44;;;;;;;;;20.50;20.00;;;;;13.65;52.67;100550.69;5038060;28;45430;-53
2022/04/20 00:06:10;;;;;;;;;17.00;14.75;;;;;13.80;52.44;100582.47;5037696;28;45290;-50
2022/04/20 00:08:35;;;;;;;;;28.00;22.60;;;;;13.71;52.39;100557.16;5037826;28;45722;-52
2022/04/20 00:11:01;;;;;;;;;25.25;20.75;;;;;13.82;52.58;100589.44;5037406;28;46731;-49
2022/04/20 00:13:27;;;;;;;;;25.00;22.00;;;;;13.81;52.48;100581.41;5037591;27;45461;-56
2022/04/20 00:15:52;;;;;;;;;19.50;19.50;;;;;13.80;52.39;100582.47;5037747;28;45482;-53
2022/04/20 00:18:18;;;;;;;;;22.75;20.25;;;;;13.75;52.69;100574.94;5037967;28;46041;-54
2022/04/20 00:20:43;;;;;;;;;28.75;26.00;;;;;13.42;52.79;100538.50;5037519;28;45445;-48
2022/04/20 00:23:09;;;;;;;;;26.25;23.25;;;;;13.65;53.07;100580.16;5037502;28;45464;-53
2022/04/20 00:25:34;;;;;;;;;24.00;19.50;;;;;13.61;52.92;100577.03;5019528;28;45467;-50
2022/04/20 00:28:00;;;;;;;;;26.25;22.00;;;;;13.42;53.06;100544.03;5036220;28;45385;-51
2022/04/20 00:30:25;;;;;;;;;25.50;23.50;;;;;13.64;53.11;100579.34;5037282;28;45418;-53
2022/04/20 00:32:51;;;;;;;;;24.50;22.25;;;;;13.59;53.12;100573.69;5036955;28;45573;-55
2022/04/20 00:35:16;;;;;;;;;22.75;20.50;;;;;13.62;53.01;100576.00;5037566;28;45488;-53
2022/04/20 00:37:42;;;;;;;;;27.25;25.75;;;;;13.56;52.80;100568.66;5035789;28;45320;-52
2022/04/20 00:40:08;;;;;;;;;31.50;25.75;;;;;13.50;53.42;100573.19;5015171;28;45395;-51
2022/04/20 00:42:34;;;;;;;;;28.20;24.00;;;;;13.39;54.01;100573.94;5030614;28;45482;-51
2022/04/20 00:44:59;;;;;;;;;28.50;22.25;;;;;13.36;53.77;100572.53;5036583;28;45287;-49
2022/04/20 00:47:25;;;;;;;;;31.00;29.25;;;;;13.24;53.94;100555.13;5017993;28;45325;-51
2022/04/20 00:49:50;;;;;;;;;29.25;26.00;;;;;13.40;53.79;100573.72;5033941;28;46451;-48
2022/04/20 00:52:16;;;;;;;;;32.75;28.25;;;;;13.41;53.59;100571.81;5031823;28;45524;-50
2022/04/20 00:54:41;;;;;;;;;29.75;26.75;;;;;13.24;53.85;100528.38;5036044;28;45214;-51
2022/04/20 00:57:07;;;;;;;;;29.75;26.75;;;;;13.44;53.52;100563.06;5033724;28;45491;-51
2022/04/20 00:59:34;;;;;;;;;33.00;29.00;;;;;13.21;53.27;100515.09;5034491;28;45458;-49
2022/04/20 01:01:59;;;;;;;;;29.80;27.20;;;;;13.52;53.59;100562.78;5034567;28;45405;-52
2022/04/20 01:04:25;;;;;;;;;26.50;21.50;;;;;13.52;53.38;100559.19;5037184;28;45857;-51
2022/04/20 01:06:50;;;;;;;;;30.75;26.25;;;;;13.52;53.73;100559.19;5037237;28;45434;-51
2022/04/20 01:09:16;;;;;;;;;30.25;29.25;;;;;13.27;53.27;100524.31;5037160;28;46778;-50
2022/04/20 01:11:42;;;;;;;;;28.50;27.25;;;;;13.29;53.52;100523.00;5036898;28;45279;-50
2022/04/20 01:14:08;;;;;;;;;33.75;28.25;;;;;13.49;53.38;100556.88;5036908;28;45393;-49
2022/04/20 01:16:34;;;;;;;;;32.20;28.20;;;;;13.33;53.96;100550.13;5035841;28;45640;-51
2022/04/20 01:19:00;;;;;;;;;40.00;31.25;;;;;13.28;54.36;100556.31;5036534;28;45483;-50
2022/04/20 01:21:28;;;;;;;;;40.60;32.60;;;;;13.29;54.03;100552.50;5036586;28;45373;-52
2022/04/20 01:23:53;;;;;;;;;33.80;30.20;;;;;13.28;54.46;100553.56;5036432;28;45243;-51
2022/04/20 01:26:21;;;;;;;;;29.75;26.25;;;;;13.10;54.16;100530.50;5037169;28;45278;-55
2022/04/20 01:28:47;;;;;;;;;30.00;27.00;;;;;13.24;54.40;100547.66;5036373;28;45428;-50
2022/04/20 01:31:16;;;;;;;;;36.20;32.80;;;;;13.28;54.11;100551.66;5036377;28;45335;-54
2022/04/20 01:33:45;;;;;;;;;39.60;34.20;;;;;13.29;54.13;100545.06;5036791;28;45692;-50
2022/04/20 01:36:11;;;;;;;;;40.20;33.80;;;;;13.31;54.22;100546.72;5036659;28;45406;-53
2022/04/20 01:38:37;;;;;;;;;40.75;36.00;;;;;13.33;54.36;100544.59;5036466;28;46477;-49
2022/04/20 01:41:02;;;;;;;;;38.20;32.60;;;;;13.31;54.09;100558.59;5069008;27;45433;-55
2022/04/20 01:43:28;;;;;;;;;45.75;36.75;;;;;13.25;54.35;100545.78;5036364;28;45444;-54
2022/04/20 01:45:53;;;;;;;;;35.50;31.75;;;;;13.25;54.34;100552.09;5069081;27;45313;-51
2022/04/20 01:48:19;;;;;;;;;37.50;28.25;;;;;13.21;54.29;100547.31;5035835;28;45965;-52
2022/04/20 01:53:30;;;;;;;;;39.20;32.60;;;;;13.18;54.76;100558.81;5036276;28;45357;-50
2022/04/20 01:55:55;;;;;;;;;35.00;32.40;;;;;13.13;54.59;100563.09;5035858;28;45548;-51
2022/04/20 01:58:21;;;;;;;;;33.25;32.00;;;;;13.09;54.74;100553.63;5067933;28;47573;-52
2022/04/20 02:00:46;;;;;;;;;39.25;31.00;;;;;12.88;54.84;100525.50;5035886;28;45291;-52
2022/04/20 02:03:12;;;;;;;;;43.00;35.25;;;;;13.09;55.20;100555.53;5035771;28;45284;-51
2022/04/20 02:05:37;;;;;;;;;35.25;31.50;;;;;13.04;54.95;100553.47;5067740;27;45663;-49
2022/04/20 02:08:03;;;;;;;;;39.25;31.25;;;;;13.07;54.97;100564.03;5023364;28;46481;-51
2022/04/20 02:10:29;;;;;;;;;41.00;32.20;;;;;13.05;55.15;100555.16;5034712;28;45362;-50
2022/04/20 02:12:54;;;;;;;;;42.00;34.50;;;;;13.04;55.22;100544.38;5033495;28;45336;-52
2022/04/20 02:15:20;;;;;;;;;34.75;31.50;;;;;13.01;55.37;100549.28;5031448;28;45544;-49
2022/04/20 02:17:45;;;;;;;;;39.00;34.00;;;;;12.66;55.50;100497.63;5033135;28;45987;-54
2022/04/20 02:20:11;;;;;;;;;42.25;37.00;;;;;12.95;55.46;100546.59;5033324;28;45331;-49
2022/04/20 02:22:36;;;;;;;;;40.00;35.75;;;;;12.81;55.71;100516.47;5033716;28;45256;-51
2022/04/20 02:25:03;;;;;;;;;47.25;36.50;;;;;12.97;55.22;100534.28;5034481;28;45563;-51
2022/04/20 02:27:29;;;;;;;;;45.20;37.20;;;;;12.91;55.40;100523.38;5035387;28;46567;-50
2022/04/20 02:29:54;;;;;;;;;46.25;37.00;;;;;12.98;55.31;100524.94;5035415;28;45275;-53
2022/04/20 02:32:22;;;;;;;;;48.25;37.00;;;;;12.69;55.71;100485.28;5035504;28;45340;-50
2022/04/20 02:34:47;;;;;;;;;51.75;40.25;;;;;12.85;55.80;100525.13;5035730;28;45587;-51
2022/04/20 02:37:13;;;;;;;;;49.75;37.00;;;;;12.75;56.17;100525.66;5035156;28;46820;-50
2022/04/20 02:39:39;;;;;;;;;49.00;38.75;;;;;12.68;56.30;100506.50;5035010;28;45706;-51
2022/04/20 02:42:06;;;;;;;;;39.80;35.60;;;;;12.76;55.73;100515.50;5035505;28;45390;-51
2022/04/20 02:44:31;;;;;;;;;51.00;38.75;;;;;12.18;55.95;100416.72;5034985;28;45428;-50
2022/04/20 02:46:57;;;;;;;;;44.25;38.25;;;;;12.56;56.01;100478.06;5035386;28;46373;-53
2022/04/20 02:49:22;;;;;;;;;49.75;39.00;;;;;12.69;56.25;100499.91;5034761;28;45357;-53
2022/04/20 02:51:48;;;;;;;;;56.25;43.25;;;;;12.58;56.68;100501.53;5035542;28;45433;-52
2022/04/20 02:54:14;;;;;;;;;48.00;37.75;;;;;12.36;56.49;100475.53;5035287;28;45366;-54
2022/04/20 02:56:39;;;;;;;;;56.25;42.75;;;;;12.55;56.33;100499.22;5034807;28;45473;-56
2022/04/20 02:59:05;;;;;;;;;46.75;36.50;;;;;12.60;56.33;100491.13;5035224;28;45396;-49
2022/04/20 03:01:30;;;;;;;;;50.75;41.25;;;;;12.48;56.13;100470.94;5033981;28;45321;-54
2022/04/20 03:03:58;;;;;;;;;49.75;38.25;;;;;12.66;56.11;100494.88;5035517;28;45619;-49
2022/04/20 03:06:23;;;;;;;;;54.60;42.40;;;;;12.47;56.04;100470.13;5035135;28;46716;-51
2022/04/20 03:08:49;;;;;;;;;48.25;39.00;;;;;12.66;56.39;100497.63;5033535;28;45783;-53
2022/04/20 03:11:14;;;;;;;;;49.75;40.75;;;;;12.61;56.42;100484.53;5035453;28;45661;-50
2022/04/20 03:13:40;;;;;;;;;51.00;40.50;;;;;12.68;56.14;100489.13;5035330;28;45607;-51
2022/04/20 03:16:05;;;;;;;;;50.75;40.25;;;;;12.67;56.23;100485.53;5035013;28;45359;-53
2022/04/20 03:18:32;;;;;;;;;54.25;41.50;;;;;12.71;55.89;100489.50;5036856;28;45649;-49
2022/04/20 03:21:02;;;;;;;;;55.00;41.00;;;;;12.61;56.42;100486.47;5038933;28;45382;-49
2022/04/20 03:23:28;;;;;;;;;51.25;40.75;;;;;12.36;56.01;100448.03;5038938;28;45528;-51
2022/04/20 03:25:54;;;;;;;;;55.00;44.75;;;;;12.65;56.22;100495.09;5018134;28;45363;-50
2022/04/20 03:28:20;;;;;;;;;50.75;41.25;;;;;12.69;56.11;100490.78;5018721;28;45604;-53
2022/04/20 03:30:46;;;;;;;;;53.40;43.00;;;;;12.51;55.73;100461.41;5018400;28;45445;-54
2022/04/20 03:33:12;;;;;;;;;47.50;39.25;;;;;12.60;55.96;100476.53;5017542;28;45459;-49
2022/04/20 03:35:38;;;;;;;;;53.25;41.75;;;;;12.79;55.78;100506.75;5018631;28;45522;-50
2022/04/20 03:38:05;;;;;;;;;60.00;46.00;;;;;12.57;55.85;100485.25;5016688;28;45416;-50
2022/04/20 03:40:30;;;;;;;;;57.50;45.25;;;;;12.73;55.86;100514.91;5018398;28;45412;-49
2022/04/20 03:42:56;;;;;;;;;53.50;42.50;;;;;12.73;55.78;100514.06;5018556;28;45426;-51
2022/04/20 03:45:21;;;;;;;;;55.75;41.75;;;;;12.71;55.88;100507.94;5005649;28;45364;-54
2022/04/20 03:47:47;;;;;;;;;53.50;44.75;;;;;12.48;55.89;100479.22;4984407;28;45579;-49
2022/04/20 03:50:12;;;;;;;;;50.25;41.25;;;;;12.57;56.17;100494.34;5021602;28;45521;-52
2022/04/20 03:52:38;;;;;;;;;50.00;41.50;;;;;12.73;55.92;100520.41;5018883;28;45438;-51
2022/04/20 03:55:04;;;;;;;;;61.60;45.40;;;;;12.73;55.75;100525.91;5016302;28;46532;-50
2022/04/20 03:57:30;;;;;;;;;53.40;42.80;;;;;12.71;55.95;100521.72;5016347;28;45879;-52
2022/04/20 03:59:55;;;;;;;;;55.25;45.00;;;;;12.71;56.05;100524.47;5017871;28;45410;-51
2022/04/20 04:02:21;;;;;;;;;57.50;45.00;;;;;12.66;56.16;100525.16;5018163;28;45501;-55
2022/04/20 04:04:47;;;;;;;;;55.75;43.25;;;;;12.66;56.30;100522.41;5017552;28;47339;-53
2022/04/20 04:07:12;;;;;;;;;59.75;46.25;;;;;12.67;55.99;100514.97;5017481;28;45346;-50
2022/04/20 04:09:38;;;;;;;;;53.50;43.00;;;;;12.63;56.34;100514.59;5017878;28;45310;-49
2022/04/20 04:12:05;;;;;;;;;55.25;44.75;;;;;12.58;56.31;100514.44;5017993;28;45352;-50
2022/04/20 04:14:31;;;;;;;;;52.80;41.40;;;;;12.59;56.73;100514.22;5017208;28;46122;-49
2022/04/20 04:16:57;;;;;;;;;57.50;43.50;;;;;12.59;56.32;100516.13;5017737;28;45296;-50
2022/04/20 04:19:23;;;;;;;;;58.20;45.00;;;;;12.43;56.41;100484.59;5017449;28;45476;-53
2022/04/20 04:21:48;;;;;;;;;59.00;45.00;;;;;12.51;56.48;100509.03;5017745;28;45430;-50
2022/04/20 04:24:34;;;;;;;;;56.00;47.75;;;;;12.49;56.57;100518.59;5015657;28;46519;-51
2022/04/20 04:26:59;;;;;;;;;57.80;45.20;;;;;12.41;56.62;100517.84;5017440;28;45483;-50
2022/04/20 04:29:25;;;;;;;;;60.50;46.75;;;;;12.43;56.35;100521.19;5016868;28;45456;-51
2022/04/20 04:31:51;;;;;;;;;57.25;45.25;;;;;12.47;56.56;100524.31;5017583;28;45489;-51
2022/04/20 04:34:16;;;;;;;;;53.00;40.00;;;;;12.50;56.16;100521.13;5017069;28;46136;-51
2022/04/20 04:36:43;;;;;;;;;60.25;46.50;;;;;12.42;56.27;100507.66;5017357;28;45507;-52
2022/04/20 04:39:09;;;;;;;;;59.00;46.25;;;;;12.47;56.46;100516.06;5017279;28;45348;-55
2022/04/20 04:41:34;;;;;;;;;52.25;41.25;;;;;12.37;56.39;100518.53;5017704;28;45554;-51
2022/04/20 04:44:00;;;;;;;;;58.75;44.00;;;;;12.31;56.57;100517.53;5017102;28;46160;-50
2022/04/20 04:49:09;;;;;;;;;60.50;47.25;;;;;12.38;56.57;100523.78;4997710;28;45296;-51
2022/04/20 04:51:35;;;;;;;;;60.50;49.00;;;;;12.27;56.02;100510.81;5017042;28;45351;-50
2022/04/20 04:54:00;;;;;;;;;57.00;43.50;;;;;12.40;56.28;100532.69;5016931;28;45909;-51
2022/04/20 04:56:26;;;;;;;;;60.00;49.00;;;;;12.42;55.89;100532.44;5016376;28;45521;-52
2022/04/20 04:58:52;;;;;;;;;55.75;45.25;;;;;12.42;55.92;100536.03;5017371;28;45232;-50
2022/04/20 05:01:17;;;;;;;;;54.50;44.50;;;;;12.35;56.32;100524.25;5017718;28;45154;-52
2022/04/20 05:03:43;;;;;;;;;62.25;49.00;;;;;12.42;56.05;100529.66;5016911;28;46026;-51
2022/04/20 05:06:08;;;;;;;;;61.25;47.00;;;;;12.46;56.21;100531.75;5017440;28;45356;-49
2022/04/20 05:08:34;;;;;;;;;65.25;50.25;;;;;12.41;55.87;100534.34;5016964;28;45339;-50
2022/04/20 05:10:59;;;;;;;;;67.25;50.50;;;;;12.38;55.61;100514.72;5017583;28;45364;-52
2022/04/20 05:13:25;;;;;;;;;56.50;44.25;;;;;12.44;56.21;100527.56;5016889;28;46472;-49
2022/04/20 05:15:50;;;;;;;;;57.25;46.50;;;;;12.47;55.83;100524.31;5016440;28;45343;-55
2022/04/20 05:18:16;;;;;;;;;62.50;48.00;;;;;12.24;55.40;100487.34;5049465;28;45409;-54
2022/04/20 05:20:41;;;;;;;;;58.50;47.25;;;;;12.49;55.66;100524.09;5016868;28;45424;-50
2022/04/20 05:23:08;;;;;;;;;64.50;50.00;;;;;12.47;55.80;100527.06;5016939;28;45753;-55
2022/04/20 05:25:33;;;;;;;;;61.60;48.20;;;;;12.44;55.63;100522.88;5016297;28;45448;-52
2022/04/20 05:27:59;;;;;;;;;60.50;49.00;;;;;12.40;55.78;100521.66;5017112;28;45246;-51
2022/04/20 05:30:24;;;;;;;;;57.50;44.75;;;;;12.38;56.19;100523.78;5016789;28;45627;-51
2022/04/20 05:32:50;;;;;;;;;57.25;43.50;;;;;12.38;55.87;100520.22;5016140;28;45279;-51
2022/04/20 05:35:15;;;;;;;;;65.50;49.75;;;;;12.44;55.35;100533.06;5016720;28;45339;-51
2022/04/20 05:43:09;;;;;;;;;57.75;46.50;;;;;12.46;55.57;100540.00;5016039;28;45823;-56
2022/04/20 05:45:36;;;;;;;;;58.25;48.00;;;;;12.55;55.64;100540.53;5016196;28;45355;-52
2022/04/20 05:48:03;;;;;;;;;56.75;46.50;;;;;12.56;55.31;100546.88;4984760;28;45259;-50
2022/04/20 05:50:29;;;;;;;;;61.25;48.00;;;;;12.54;55.40;100541.59;5016272;28;45425;-49
2022/04/20 05:52:54;;;;;;;;;63.50;49.75;;;;;12.57;55.21;100543.91;5015951;28;45837;-51
2022/04/20 05:55:20;;;;;;;;;59.25;45.75;;;;;12.58;54.97;100537.31;5016061;28;45375;-49
2022/04/20 05:57:48;;;;;;;;;56.50;45.50;;;;;12.37;54.91;100497.34;5016049;28;45448;-53
2022/04/20 06:00:14;;;;;;;;;62.75;47.25;;;;;12.23;54.78;100471.06;5016631;28;45822;-50
2022/04/20 06:02:40;;;;;;;;;60.00;47.25;;;;;12.69;54.96;100537.59;5014551;28;46664;-49
2022/04/20 06:05:06;;;;;;;;;57.00;46.25;;;;;12.68;54.70;100530.41;5016071;28;45301;-51
2022/04/20 06:10:53;;;;;;;;;57.50;45.75;;;;;12.70;54.75;100525.53;5015965;28;45324;-49
2022/04/20 06:13:19;;;;;;;;;62.25;49.00;;;;;12.37;54.98;100482.75;5016369;28;46611;-51
2022/04/20 06:15:44;;;;;;;;;55.00;44.00;;;;;12.65;54.84;100536.41;5015622;28;45326;-52
2022/04/20 06:18:10;;;;;;;;;64.00;49.25;;;;;12.41;54.58;100497.72;5015964;28;45150;-53
2022/04/20 06:20:35;;;;;;;;;62.50;49.50;;;;;12.65;54.68;100533.66;5014849;28;45320;-52
2022/04/20 06:23:01;;;;;;;;;60.25;48.50;;;;;12.38;55.21;100489.94;5014236;28;45559;-55
2022/04/20 06:25:26;;;;;;;;;57.25;48.00;;;;;12.58;54.82;100533.72;5015959;28;45312;-52
2022/04/20 06:27:51;;;;;;;;;63.00;48.50;;;;;12.63;54.68;100533.88;5015769;28;45169;-50
2022/04/20 06:30:17;;;;;;;;;63.25;48.25;;;;;12.64;54.67;100537.47;5016183;28;45240;-49
2022/04/20 06:32:42;;;;;;;;;60.75;48.75;;;;;12.61;54.81;100534.09;5015445;28;46339;-51
2022/04/20 06:35:08;;;;;;;;;67.00;49.25;;;;;12.68;54.78;100533.19;5015647;28;45438;-50
2022/04/20 06:37:33;;;;;;;;;62.75;49.75;;;;;12.71;54.56;100533.56;5015843;28;45347;-49
2022/04/20 06:39:59;;;;;;;;;60.75;48.25;;;;;12.69;54.66;100530.19;5015822;28;45539;-51
2022/04/20 06:42:26;;;;;;;;;63.50;50.00;;;;;12.57;54.30;100510.03;5015313;28;46457;-50
2022/04/20 06:44:52;;;;;;;;;62.50;50.75;;;;;12.78;54.59;100532.63;5015400;28;45413;-51
2022/04/20 06:47:17;;;;;;;;;62.25;48.75;;;;;12.79;54.63;100543.41;5015599;28;45412;-52
2022/04/20 06:49:43;;;;;;;;;64.75;49.00;;;;;12.82;54.24;100537.44;5015656;28;45628;-52
2022/04/20 07:00:20;;;;;;;;;59.25;48.00;;;;;12.81;53.67;100533.00;5015059;28;45486;-51
2022/04/20 07:02:45;;;;;;;;;59.25;47.50;;;;;12.87;53.77;100540.34;5015038;28;45434;-50
2022/04/20 07:05:11;;;;;;;;;57.25;46.25;;;;;12.92;53.34;100544.31;5015047;28;45350;-51
2022/04/20 07:07:36;;;;;;;;;59.50;48.75;;;;;12.91;53.50;100537.13;5015474;28;45423;-50
2022/04/20 07:10:05;;;;;;;;;56.75;44.50;;;;;12.92;53.39;100531.38;5015512;28;45606;-47
2022/04/20 07:12:31;;;;;;;;;63.75;47.75;;;;;12.99;52.80;100537.66;5014957;28;45389;-49
2022/04/20 07:14:58;;;;;;;;;59.25;47.25;;;;;12.74;52.72;100500.06;5015232;28;45586;-49
2022/04/20 07:17:23;;;;;;;;;60.25;45.25;;;;;12.98;52.94;100541.47;5014991;28;45544;-49
2022/04/20 07:19:49;;;;;;;;;48.75;40.25;;;;;13.08;52.47;100546.41;5015142;28;45608;-50
2022/04/20 07:22:14;;;;;;;;;56.25;45.25;;;;;13.05;52.36;100533.13;5014957;28;46072;-51
2022/04/20 07:24:40;;;;;;;;;57.75;45.50;;;;;13.17;52.17;100541.41;5013667;28;45399;-50
2022/04/20 07:27:05;;;;;;;;;55.75;46.50;;;;;13.26;52.11;100537.28;5015210;28;45461;-49
2022/04/20 07:29:31;;;;;;;;;59.75;46.00;;;;;13.35;51.41;100543.25;5014974;28;45552;-49
2022/04/20 07:31:56;;;;;;;;;61.25;46.50;;;;;13.35;51.56;100537.75;5000067;28;46098;-51
2022/04/20 07:34:22;;;;;;;;;51.50;39.75;;;;;13.36;51.37;100544.97;5033545;28;45444;-51
2022/04/20 07:36:49;;;;;;;;;55.50;44.50;;;;;13.47;51.09;100550.75;5034845;28;45381;-50
2022/04/20 07:39:15;;;;;;;;;49.40;39.20;;;;;13.55;50.69;100555.94;5035093;28;45300;-50
2022/04/20 07:41:40;;;;;;;;;52.25;42.50;;;;;13.38;50.45;100509.72;5034474;28;46736;-55
2022/04/20 07:44:06;;;;;;;;;52.00;40.25;;;;;13.77;50.50;100549.88;5034991;28;45694;-50
2022/04/20 07:46:31;;;;;;;;;51.00;40.00;;;;;13.91;49.52;100544.94;5034612;28;45212;-54
2022/04/20 07:48:57;;;;;;;;;50.25;39.75;;;;;14.01;49.64;100545.19;5035194;28;45455;-51
2022/04/20 07:51:23;;;;;;;;;50.00;40.25;;;;;14.09;49.73;100547.59;5034456;28;45372;-54
2022/04/20 07:53:48;;;;;;;;;45.00;39.00;;;;;14.09;49.18;100547.59;5034502;28;45499;-57
2022/04/20 07:56:14;;;;;;;;;51.00;39.75;;;;;14.11;48.68;100550.13;5033321;28;45631;-53
2022/04/20 07:58:39;;;;;;;;;50.50;39.25;;;;;14.19;49.72;100546.16;5034864;28;45336;-51
2022/04/20 08:01:05;;;;;;;;;48.50;40.25;;;;;14.28;48.33;100544.72;5034550;28;46100;-49
2022/04/20 08:03:31;;;;;;;;;46.75;39.00;;;;;14.28;48.19;100541.94;5032852;28;45580;-51
2022/04/20 08:05:59;;;;;;;;;47.60;38.40;;;;;14.15;47.44;100522.88;5037945;28;45516;-50
2022/04/20 08:08:24;;;;;;;;;49.00;37.25;;;;;14.24;48.08;100535.22;5037533;28;45593;-54
2022/04/20 08:10:50;;;;;;;;;53.25;40.00;;;;;14.12;47.44;100506.78;5037456;28;45702;-54
2022/04/20 08:15:59;;;;;;;;;48.00;38.00;;;;;14.50;46.76;100539.41;5036819;28;45337;-55
2022/04/20 08:18:25;;;;;;;;;46.25;37.75;;;;;14.52;47.70;100544.69;5038158;28;45607;-51
2022/04/20 08:20:51;;;;;;;;;44.75;36.50;;;;;14.54;46.75;100522.31;5037130;28;47438;-50
2022/04/20 08:23:16;;;;;;;;;37.50;30.75;;;;;14.69;46.36;100544.75;5037886;28;45181;-50
2022/04/20 08:25:42;;;;;;;;;36.50;33.50;;;;;14.64;46.64;100528.06;5021076;28;45861;-55
2022/04/20 08:28:08;;;;;;;;;36.25;30.25;;;;;14.79;46.62;100537.78;5000044;28;45487;-47
2022/04/20 08:30:35;;;;;;;;;38.80;32.40;;;;;14.75;44.87;100537.44;4999399;28;46475;-52
2022/04/20 08:33:01;;;;;;;;;39.20;33.40;;;;;14.32;44.83;100465.00;4991207;28;45617;-49
2022/04/20 08:35:26;;;;;;;;;39.50;33.00;;;;;14.98;45.24;100541.19;5017126;28;45346;-53
2022/04/20 08:37:52;;;;;;;;;37.75;33.00;;;;;15.09;45.24;100540.31;5015739;28;45388;-53
2022/04/20 08:40:17;;;;;;;;;36.75;32.75;;;;;15.03;45.06;100542.16;5014332;28;46403;-54
2022/04/20 08:42:43;;;;;;;;;48.50;35.50;;;;;15.09;45.42;100531.19;5048353;28;45519;-50
2022/04/20 08:45:09;;;;;;;;;33.25;28.75;;;;;15.27;44.00;100555.84;5047425;28;45294;-56
2022/04/20 08:47:36;;;;;;;;;36.00;30.60;;;;;15.35;44.02;100551.84;5015704;28;45407;-56
2022/04/20 08:50:03;;;;;;;;;33.20;31.00;;;;;15.40;43.83;100551.09;5015776;28;46274;-51
2022/04/20 08:52:37;;;;;;;;;33.40;31.00;;;;;15.47;44.07;100553.72;5015565;28;45595;-50
2022/04/20 08:55:12;;;;;;;;;30.60;26.40;;;;;15.48;43.39;100550.66;5016286;28;45870;-52
2022/04/20 08:57:38;;;;;;;;;22.40;22.40;;;;;15.52;43.80;100551.88;5016464;28;45272;-52
2022/04/20 09:00:09;;;;;;;;;36.00;30.20;;;;;15.58;42.98;100545.34;5017552;28;45646;-55
2022/04/20 09:02:35;;;;;;;;;29.60;28.20;;;;;15.51;42.70;100547.44;5032783;28;45835;-56
2022/04/20 09:05:03;;;;;;;;;33.25;29.25;;;;;15.58;43.39;100542.56;5015311;28;45394;-52
2022/04/20 09:07:31;;;;;;;;;32.80;28.20;;;;;15.30;43.46;100488.16;5015746;28;45943;-51
2022/04/20 09:09:56;;;;;;;;;27.80;23.40;;;;;15.61;43.26;100504.41;5015642;28;45902;-54
2022/04/20 09:12:26;;;;;;;;;29.75;26.50;;;;;15.88;42.97;100534.16;5008718;28;45563;-55
2022/04/20 09:14:52;;;;;;;;;28.60;27.00;;;;;16.07;42.57;100540.31;5014435;28;45280;-54
2022/04/20 09:17:19;;;;;;;;;29.25;26.00;;;;;15.99;42.05;100525.81;5014840;28;45629;-56
2022/04/20 09:19:46;;;;;;;;;37.20;29.80;;;;;16.10;42.24;100537.88;5015237;28;47265;-55
2022/04/20 09:22:22;;;;;;;;;29.00;28.40;;;;;16.17;42.34;100523.84;5015970;28;45364;-55
2022/04/20 09:25:03;;;;;;;;;29.20;27.80;;;;;16.34;42.07;100528.53;5022063;28;45441;-57
2022/04/20 09:27:30;;;;;;;;;26.20;25.20;;;;;16.41;41.61;100523.63;5036186;28;45602;-53
2022/04/20 09:29:58;;;;;;;;;26.40;23.20;;;;;16.55;41.44;100534.31;5036713;28;46476;-56
2022/04/20 09:32:39;;;;;;;;;35.80;32.00;;;;;16.48;41.27;100532.59;5036441;28;45497;-54
2022/04/20 09:35:10;;;;;;;;;29.80;26.80;;;;;16.57;41.77;100535.75;4983237;28;45488;-57
2022/04/20 09:37:36;;;;;;;;;31.80;30.20;;;;;16.65;40.83;100529.75;5026412;28;45608;-54
2022/04/20 09:40:05;;;;;;;;;28.75;23.25;;;;;16.70;40.97;100517.06;5019694;28;46426;-51
2022/04/20 09:42:31;;;;;;;;;34.00;29.60;;;;;16.83;40.78;100524.97;5015786;28;45472;-55
2022/04/20 09:45:02;;;;;;;;;25.50;22.75;;;;;16.87;40.52;100522.53;5016319;28;45756;-54
2022/04/20 09:50:21;;;;;;;;;25.40;23.20;;;;;16.97;40.42;100521.78;5030153;28;45674;-55
2022/04/20 09:52:47;;;;;;;;;29.60;23.80;;;;;17.02;40.54;100530.22;5036111;28;45393;-55
2022/04/20 09:55:36;;;;;;;;;25.40;22.40;;;;;17.07;40.30;100519.16;5036131;28;45349;-55
2022/04/20 09:58:26;;;;;;;;;28.40;25.00;;;;;17.09;40.58;100514.19;5030191;28;45608;-55
2022/04/20 10:00:52;;;;;;;;;27.00;23.00;;;;;17.12;40.97;100508.13;5032680;28;48192;-57
2022/04/20 10:03:28;;;;;;;;;31.25;25.75;;;;;17.17;40.47;100502.63;5014823;28;45377;-55
2022/04/20 10:05:54;;;;;;;;;20.20;19.00;;;;;17.18;39.31;100495.97;5014997;28;45397;-52
2022/04/20 10:08:20;;;;;;;;;26.40;24.00;;;;;17.39;39.91;100510.03;5016170;28;45569;-54
2022/04/20 10:10:49;;;;;;;;;23.50;21.50;;;;;17.12;39.74;100468.47;5015757;28;45346;-55
2022/04/20 10:13:14;;;;;;;;;18.20;17.60;;;;;17.46;40.20;100502.31;5020092;28;45404;-55
2022/04/20 10:18:25;;;;;;;;;22.20;20.80;;;;;17.53;40.11;100484.63;5035973;28;45318;-55
2022/04/20 10:20:54;;;;;;;;;22.40;21.20;;;;;17.55;39.64;100474.13;5035475;28;46056;-53
2022/04/20 10:23:21;;;;;;;;;17.00;16.60;;;;;17.57;39.13;100467.19;5035593;28;45389;-57
2022/04/20 10:25:48;;;;;;;;;16.60;14.60;;;;;17.82;39.86;100498.19;5029437;28;45443;-57
2022/04/20 10:28:49;;;;;;;;;23.20;20.20;;;;;17.80;39.37;100492.03;5014659;28;45483;-55
2022/04/20 10:31:20;;;;;;;;;21.60;18.40;;;;;17.84;39.98;100495.97;5006415;28;46578;-58
2022/04/20 10:33:46;;;;;;;;;18.80;18.40;;;;;17.88;40.34;100488.78;5015659;28;45365;-49
2022/04/20 10:36:14;;;;;;;;;20.60;18.80;;;;;17.95;39.54;100486.59;5014316;28;45290;-49
2022/04/20 10:38:40;;;;;;;;;16.60;15.80;;;;;17.73;40.05;100454.25;5013143;28;45571;-51
2022/04/20 10:41:10;;;;;;;;;20.00;15.00;;;;;18.00;39.70;100494.94;5004940;28;46738;-51
2022/04/20 10:43:41;;;;;;;;;21.60;21.20;;;;;18.05;39.85;100483.09;5015393;28;45326;-49
2022/04/20 10:46:17;;;;;;;;;21.80;20.00;;;;;18.06;39.67;100473.66;5015832;28;45535;-54
2022/04/20 10:49:00;;;;;;;;;17.60;16.40;;;;;18.00;39.43;100453.28;5015851;28;45604;-49
2022/04/20 10:51:35;;;;;;;;;15.60;14.40;;;;;18.20;40.16;100485.09;5035053;28;46862;-50
2022/04/20 10:54:29;;;;;;;;;19.40;15.80;;;;;18.33;39.53;100471.81;5034952;28;45523;-51
2022/04/20 10:57:01;;;;;;;;;31.40;26.20;;;;;18.45;39.58;100471.63;5028254;28;45491;-50
2022/04/20 10:59:30;;;;;;;;;15.60;14.60;;;;;18.50;39.36;100471.63;5015543;28;45982;-54
2022/04/20 11:02:05;;;;;;;;;13.20;12.60;;;;;18.46;39.06;100460.22;5013312;28;46672;-55
2022/04/20 11:04:37;;;;;;;;;15.20;14.40;;;;;18.41;38.29;100430.47;4995772;28;45510;-51
2022/04/20 11:07:03;;;;;;;;;11.20;11.20;;;;;18.72;38.66;100448.34;5015617;28;45372;-51
2022/04/20 11:09:48;;;;;;;;;11.00;10.40;;;;;18.85;37.95;100444.19;5013890;28;45676;-50
2022/04/20 11:21:03;;;;;;;;;11.40;10.40;;;;;19.21;37.17;100441.50;5015511;28;45374;-54
2022/04/20 11:23:52;;;;;;;;;11.80;11.20;;;;;19.32;37.28;100448.72;5015261;28;46183;-55
2022/04/20 11:26:40;;;;;;;;;10.40;9.00;;;;;19.28;37.33;100419.81;5013505;28;45418;-55
2022/04/20 11:29:19;;;;;;;;;10.00;9.20;;;;;19.59;37.81;100444.81;5014094;28;45330;-52
2022/04/20 11:31:49;;;;;;;;;9.40;9.40;;;;;19.71;36.52;100443.69;5013780;28;45440;-54
2022/04/20 11:34:16;;;;;;;;;8.60;8.60;;;;;19.76;35.28;100438.94;5013948;28;46775;-53
2022/04/20 11:36:48;;;;;;;;;7.40;6.60;;;;;19.88;33.53;100448.94;5013693;28;45346;-49
2022/04/20 11:39:15;;;;;;;;;8.00;5.00;;;;;19.64;33.07;100408.63;5015208;28;45576;-50
2022/04/20 11:41:44;;;;;;;;;6.00;5.20;;;;;19.69;33.18;100418.09;5018492;28;45387;-51
2022/04/20 11:44:24;;;;;;;;;6.60;6.00;;;;;19.84;33.83;100429.19;5016702;28;45794;-48
2022/04/20 11:46:49;;;;;;;;;6.00;6.00;;;;;19.91;34.23;100424.16;5017214;28;45479;-51
2022/04/20 11:49:15;;;;;;;;;5.00;5.00;;;;;20.09;33.54;100430.25;5018589;28;45388;-54